createdAt,value
2019-04-01T00:00:36.032Z,97024.96
2019-04-01T00:03:05.982Z,97024.89
2019-04-01T00:05:34.619Z,97025.60
2019-04-01T00:08:03.367Z,97033.59
2019-04-01T00:10:32.058Z,97023.45
2019-04-01T00:13:00.620Z,97027.89
2019-04-01T00:15:29.258Z,97026.59
2019-04-01T00:17:57.939Z,97028.58
2019-04-01T00:20:26.579Z,97028.09
2019-04-01T00:22:55.209Z,97025.85
2019-04-01T00:25:24.314Z,97027.73
2019-04-01T00:27:52.958Z,97028.91
2019-04-01T00:30:21.603Z,97024.62
2019-04-01T00:32:50.311Z,97025.50
2019-04-01T00:35:18.963Z,97023.94
2019-04-01T00:37:47.593Z,97025.11
2019-04-01T00:40:17.500Z,97029.46
2019-04-01T00:42:53.671Z,97029.66
2019-04-01T00:45:23.991Z,97028.39
2019-04-01T00:47:52.492Z,97034.77
2019-04-01T00:50:21.136Z,97038.59
2019-04-01T00:52:49.825Z,97035.74
2019-04-01T00:55:18.425Z,97035.67
2019-04-01T00:57:46.981Z,97037.19
2019-04-01T01:00:18.096Z,97038.68
2019-04-01T01:02:46.755Z,97032.00
2019-04-01T01:05:15.399Z,97040.19
2019-04-01T01:07:44.012Z,97046.24
2019-04-01T01:10:13.082Z,97047.66
2019-04-01T01:12:41.731Z,97048.94
2019-04-01T01:15:10.431Z,97043.18
2019-04-01T01:17:39.002Z,97041.97
2019-04-01T01:20:07.737Z,97043.42
2019-04-01T01:22:36.424Z,97051.36
2019-04-01T01:25:05.468Z,97046.98
2019-04-01T01:27:34.111Z,97048.45
2019-04-01T01:30:03.413Z,97051.87
2019-04-01T01:32:32.061Z,97055.42
2019-04-01T01:35:00.702Z,97046.33
2019-04-01T01:37:29.401Z,97050.66
2019-04-01T01:39:58.049Z,97045.82
2019-04-01T01:42:26.688Z,97040.34
2019-04-01T01:44:55.382Z,97046.77
2019-04-01T01:47:24.022Z,97050.48
2019-04-01T01:49:52.665Z,97049.45
2019-04-01T01:52:21.298Z,97048.59
2019-04-01T01:54:49.914Z,97043.22
2019-04-01T01:57:18.563Z,97044.07
2019-04-01T01:59:47.476Z,97046.11
2019-04-01T02:02:16.122Z,97044.17
2019-04-01T02:04:44.772Z,97047.97
2019-04-01T02:07:13.843Z,97042.02
2019-04-01T02:09:42.482Z,97052.11
2019-04-01T02:12:11.191Z,97049.77
2019-04-01T02:14:39.873Z,97051.27
2019-04-01T02:17:08.510Z,97054.98
2019-04-01T02:19:37.154Z,97053.67
2019-04-01T02:22:05.843Z,97055.05
2019-04-01T02:24:34.485Z,97060.77
2019-04-01T02:27:03.128Z,97062.03
2019-04-01T02:29:31.738Z,97067.24
2019-04-01T02:32:00.381Z,97067.02
2019-04-01T02:34:28.946Z,97068.45
2019-04-01T02:36:57.503Z,97068.50
2019-04-01T02:39:28.397Z,97063.86
2019-04-01T02:41:57.031Z,97066.58
2019-04-01T02:44:25.704Z,97071.05
2019-04-01T02:46:54.285Z,97067.31
2019-04-01T02:49:22.938Z,97068.68
2019-04-01T02:51:51.621Z,97074.42
2019-04-01T02:54:20.397Z,97076.03
2019-04-01T02:56:48.859Z,97071.69
2019-04-01T02:59:17.806Z,97071.23
2019-04-01T03:01:47.038Z,97070.23
2019-04-01T03:04:15.695Z,97075.52
2019-04-01T03:06:45.946Z,97076.96
2019-04-01T03:09:14.704Z,97081.38
2019-04-01T03:11:43.335Z,97081.20
2019-04-01T03:14:12.019Z,97073.48
2019-04-01T03:16:40.588Z,97080.00
2019-04-01T03:19:09.692Z,97082.19
2019-04-01T03:21:38.312Z,97076.28
2019-04-01T03:24:06.963Z,97079.48
2019-04-01T03:26:35.604Z,97080.56
2019-04-01T03:29:05.986Z,97076.30
2019-04-01T03:31:34.692Z,97082.37
2019-04-01T03:34:03.837Z,97085.77
2019-04-01T03:36:32.487Z,97084.58
2019-04-01T03:39:01.141Z,97085.02
2019-04-01T03:41:30.074Z,97083.09
2019-04-01T03:43:59.059Z,97088.00
2019-04-01T03:46:27.698Z,97084.16
2019-04-01T03:48:56.399Z,97086.77
2019-04-01T03:51:25.050Z,97092.33
2019-04-01T03:53:53.704Z,97090.02
2019-04-01T03:56:22.910Z,97088.42
2019-04-01T03:58:51.557Z,97094.14
2019-04-01T04:01:20.198Z,97094.31
2019-04-01T04:03:48.847Z,97100.19
2019-04-01T04:06:17.384Z,97102.33
2019-04-01T04:08:45.947Z,97097.56
2019-04-01T04:11:14.784Z,97098.94
2019-04-01T04:13:43.357Z,97091.23
2019-04-01T04:16:12.005Z,97099.97
2019-04-01T04:18:40.625Z,97104.16
2019-04-01T04:21:09.157Z,97106.75
2019-04-01T04:23:37.898Z,97110.95
2019-04-01T04:26:06.771Z,97117.23
2019-04-01T04:28:35.416Z,97117.88
2019-04-01T04:31:04.071Z,97122.57
2019-04-01T04:33:33.147Z,97122.69
2019-04-01T04:36:01.718Z,97123.44
2019-04-01T04:38:30.283Z,97123.02
2019-04-01T04:40:58.967Z,97122.70
2019-04-01T04:43:28.524Z,97118.28
2019-04-01T04:45:57.179Z,97123.42
2019-04-01T04:48:25.893Z,97117.24
2019-04-01T04:50:54.557Z,97119.84
2019-04-01T04:53:23.209Z,97115.20
2019-04-01T04:55:52.764Z,97120.80
2019-04-01T04:58:21.412Z,97121.42
2019-04-01T05:00:50.059Z,97123.66
2019-04-01T05:03:18.831Z,97125.16
2019-04-01T05:05:47.547Z,97124.69
2019-04-01T05:08:16.190Z,97138.89
2019-04-01T05:10:45.302Z,97133.96
2019-04-01T05:13:13.948Z,97134.83
2019-04-01T05:15:42.675Z,97134.98
2019-04-01T05:18:11.380Z,97133.82
2019-04-01T05:20:40.796Z,97136.25
2019-04-01T05:23:10.150Z,97144.98
2019-04-01T05:25:40.437Z,97142.09
2019-04-01T05:28:11.612Z,97146.12
2019-04-01T05:30:41.646Z,97140.22
2019-04-01T05:33:12.963Z,97145.18
2019-04-01T05:35:41.639Z,97139.17
2019-04-01T05:38:11.155Z,97134.94
2019-04-01T05:40:39.880Z,97140.53
2019-04-01T05:43:08.547Z,97135.17
2019-04-01T05:45:37.193Z,97134.14
2019-04-01T05:48:07.543Z,97135.09
2019-04-01T05:50:39.128Z,97130.16
2019-04-01T05:53:07.786Z,97128.45
2019-04-01T05:55:38.421Z,97124.39
2019-04-01T05:58:07.459Z,97126.53
2019-04-01T06:00:56.150Z,97119.63
2019-04-01T06:03:25.374Z,97124.81
2019-04-01T06:05:56.294Z,97125.84
2019-04-01T06:08:26.460Z,97127.41
2019-04-01T06:10:55.132Z,97128.70
2019-04-01T06:13:25.446Z,97129.13
2019-04-01T06:15:54.723Z,97133.14
2019-04-01T06:18:23.495Z,97128.58
2019-04-01T06:20:52.761Z,97130.14
2019-04-01T06:23:21.491Z,97128.83
2019-04-01T06:25:50.200Z,97126.80
2019-04-01T06:28:20.153Z,97128.86
2019-04-01T06:30:48.902Z,97126.28
2019-04-01T06:33:17.660Z,97118.80
2019-04-01T06:35:46.380Z,97121.48
2019-04-01T06:38:16.843Z,97116.89
2019-04-01T06:40:45.513Z,97123.45
2019-04-01T06:43:14.253Z,97125.05
2019-04-01T06:45:43.487Z,97114.66
2019-04-01T06:48:12.147Z,97116.07
2019-04-01T06:50:42.242Z,97111.22
2019-04-01T06:53:10.973Z,97112.44
2019-04-01T06:55:41.283Z,97109.91
2019-04-01T06:58:11.944Z,97119.73
2019-04-01T07:00:40.851Z,97118.30
2019-04-01T07:03:09.506Z,97118.88
2019-04-01T07:05:38.183Z,97122.13
2019-04-01T07:08:07.233Z,97122.45
2019-04-01T07:10:35.869Z,97117.03
2019-04-01T07:13:06.027Z,97123.52
2019-04-01T07:15:34.741Z,97119.66
2019-04-01T07:18:04.862Z,97120.75
2019-04-01T07:20:33.501Z,97112.44
2019-04-01T07:23:02.487Z,97112.87
2019-04-01T07:25:34.044Z,97109.30
2019-04-01T07:28:01.649Z,97109.00
2019-04-01T07:30:31.929Z,97110.77
2019-04-01T07:33:00.576Z,97106.38
2019-04-01T07:35:29.432Z,97102.75
2019-04-01T07:37:59.397Z,97094.41
2019-04-01T07:40:28.070Z,97096.80
2019-04-01T07:42:57.114Z,97096.36
2019-04-01T07:45:25.834Z,97094.27
2019-04-01T07:47:57.303Z,97097.60
2019-04-01T07:50:26.322Z,97093.10
2019-04-01T07:52:55.529Z,97087.44
2019-04-01T07:55:24.664Z,97088.45
2019-04-01T07:57:54.016Z,97090.02
2019-04-01T08:00:24.143Z,97083.93
2019-04-01T08:02:52.734Z,97081.83
2019-04-01T08:05:25.895Z,97079.59
2019-04-01T08:08:00.175Z,97076.64
2019-04-01T08:10:24.011Z,97067.32
2019-04-01T08:12:52.901Z,97067.49
2019-04-01T08:15:21.678Z,97058.16
2019-04-01T08:17:50.350Z,97058.97
2019-04-01T08:20:19.215Z,97059.07
2019-04-01T08:22:47.851Z,97069.16
2019-04-01T08:25:16.540Z,97063.53
2019-04-01T08:27:50.307Z,97058.78
2019-04-01T08:30:20.623Z,97049.18
2019-04-01T08:32:49.312Z,97042.67
2019-04-01T08:35:18.014Z,97040.53
2019-04-01T08:37:46.766Z,97042.67
2019-04-01T08:40:15.434Z,97034.05
2019-04-01T08:42:44.115Z,97032.26
2019-04-01T08:45:14.933Z,97027.10
2019-04-01T08:47:48.564Z,97022.40
2019-04-01T08:50:17.755Z,97017.70
2019-04-01T08:52:46.474Z,97014.44
2019-04-01T08:55:15.231Z,97007.98
2019-04-01T08:57:45.874Z,97004.50
2019-04-01T09:00:16.025Z,96991.06
2019-04-01T09:02:45.040Z,96992.77
2019-04-01T09:05:14.624Z,96989.45
2019-04-01T09:07:43.785Z,96984.30
2019-04-01T09:10:13.811Z,96938.85
2019-04-01T09:12:42.901Z,96938.85
2019-04-01T09:15:12.363Z,96965.05
2019-04-01T09:17:46.298Z,96952.85
2019-04-01T09:20:14.966Z,96932.13
2019-04-01T09:22:43.614Z,96943.70
2019-04-01T09:25:13.082Z,96936.98
2019-04-01T09:27:41.733Z,96927.98
2019-04-01T09:30:10.880Z,96933.98
2019-04-01T09:32:40.071Z,96926.09
2019-04-01T09:35:09.291Z,96921.66
2019-04-01T09:37:38.206Z,96919.95
2019-04-01T09:40:07.980Z,96911.77
2019-04-01T09:42:38.177Z,96909.27
2019-04-01T09:45:08.495Z,96901.30
2019-04-01T09:47:37.155Z,96899.36
2019-04-01T09:50:07.707Z,96894.61
2019-04-01T09:52:36.350Z,96892.64
2019-04-01T09:55:06.625Z,96892.28
2019-04-01T09:57:35.428Z,96892.66
2019-04-01T10:00:09.860Z,96885.28
2019-04-01T10:02:40.071Z,96882.94
2019-04-01T10:05:10.303Z,96876.16
2019-04-01T10:07:39.173Z,96873.41
2019-04-01T10:10:08.379Z,96863.69
2019-04-01T10:12:38.461Z,96858.31
2019-04-01T10:15:08.095Z,96862.19
2019-04-01T10:17:42.221Z,96851.48
2019-04-01T10:20:11.584Z,96838.25
2019-04-01T10:22:40.250Z,96843.91
2019-04-01T10:25:09.603Z,96846.08
2019-04-01T10:27:38.273Z,96835.89
2019-04-01T10:30:11.146Z,96824.56
2019-04-01T10:32:39.790Z,96827.70
2019-04-01T10:35:09.159Z,96822.87
2019-04-01T10:37:37.909Z,96821.77
2019-04-01T10:40:07.987Z,96821.79
2019-04-01T10:42:36.698Z,96809.22
2019-04-01T10:45:09.907Z,96797.73
2019-04-01T10:47:38.705Z,96796.78
2019-04-01T10:50:09.110Z,96813.08
2019-04-01T10:52:37.864Z,96813.46
2019-04-01T10:55:07.974Z,96804.36
2019-04-01T10:57:43.534Z,96805.17
2019-04-01T11:00:12.291Z,96802.39
2019-04-01T11:02:41.064Z,96797.05
2019-04-01T11:05:11.538Z,96781.47
2019-04-01T11:07:40.371Z,96785.88
2019-04-01T11:10:11.707Z,96789.66
2019-04-01T11:12:40.232Z,96779.75
2019-04-01T11:15:15.179Z,96793.17
2019-04-01T11:17:41.661Z,96787.66
2019-04-01T11:20:10.512Z,96766.13
2019-04-01T11:22:39.149Z,96769.19
2019-04-01T11:25:08.887Z,96764.92
2019-04-01T11:27:37.472Z,96759.41
2019-04-01T11:30:08.384Z,96754.92
2019-04-01T11:32:37.535Z,96738.66
2019-04-01T11:35:08.954Z,96744.05
2019-04-01T11:37:39.147Z,96741.38
2019-04-01T11:40:11.337Z,96735.93
2019-04-01T11:42:40.613Z,96740.00
2019-04-01T11:45:09.894Z,96724.19
2019-04-01T11:47:38.626Z,96736.22
2019-04-01T11:50:07.528Z,96735.39
2019-04-01T11:52:37.126Z,96722.16
2019-04-01T11:55:09.131Z,96723.86
2019-04-01T11:57:38.603Z,96721.54
2019-04-01T12:00:12.657Z,96726.84
2019-04-01T12:02:41.959Z,96714.84
2019-04-01T12:05:10.704Z,96716.10
2019-04-01T12:07:40.891Z,96715.52
2019-04-01T12:10:10.147Z,96702.82
2019-04-01T12:12:38.732Z,96699.80
2019-04-01T12:15:11.646Z,96700.98
2019-04-01T12:17:41.329Z,96692.52
2019-04-01T12:20:11.831Z,96689.59
2019-04-01T12:22:41.268Z,96681.21
2019-04-01T12:25:10.930Z,96684.84
2019-04-01T12:27:39.509Z,96682.75
2019-04-01T12:30:10.366Z,96668.53
2019-04-01T12:32:39.021Z,96665.75
2019-04-01T12:35:08.664Z,96668.42
2019-04-01T12:37:37.392Z,96669.30
2019-04-01T12:40:07.476Z,96670.86
2019-04-01T12:42:36.190Z,96658.75
2019-04-01T12:45:07.326Z,96658.50
2019-04-01T12:47:36.419Z,96655.25
2019-04-01T12:50:05.776Z,96651.69
2019-04-01T12:52:34.500Z,96657.33
2019-04-01T12:55:03.247Z,96649.19
2019-04-01T12:57:31.952Z,96657.04
2019-04-01T13:00:00.736Z,96648.46
2019-04-01T13:02:30.396Z,96646.95
2019-04-01T13:04:58.996Z,96638.66
2019-04-01T13:07:27.821Z,96645.54
2019-04-01T13:09:56.378Z,96634.73
2019-04-01T13:12:27.297Z,96642.61
2019-04-01T13:14:56.990Z,96637.66
2019-04-01T13:17:25.671Z,96633.06
2019-04-01T13:19:55.111Z,96633.00
2019-04-01T13:22:24.614Z,96631.89
2019-04-01T13:24:53.342Z,96628.16
2019-04-01T13:27:23.655Z,96623.57
2019-04-01T13:29:52.910Z,96624.27
2019-04-01T13:32:21.726Z,96623.80
2019-04-01T13:34:50.332Z,96630.28
2019-04-01T13:37:19.728Z,96619.81
2019-04-01T13:39:48.395Z,96620.30
2019-04-01T13:42:17.040Z,96613.94
2019-04-01T13:44:46.084Z,96616.16
2019-04-01T13:47:14.749Z,96605.52
2019-04-01T13:49:43.254Z,96600.86
2019-04-01T13:52:12.392Z,96598.05
2019-04-01T13:54:41.439Z,96611.64
2019-04-01T13:57:10.381Z,96612.70
2019-04-01T13:59:49.118Z,96600.19
2019-04-01T14:02:09.499Z,96600.67
2019-04-01T14:04:38.207Z,96596.36
2019-04-01T14:07:12.211Z,96596.56
2019-04-01T14:09:40.778Z,96601.70
2019-04-01T14:12:09.442Z,96604.91
2019-04-01T14:14:38.598Z,96595.52
2019-04-01T14:17:08.161Z,96595.44
2019-04-01T14:19:36.669Z,96594.31
2019-04-01T14:22:05.355Z,96593.47
2019-04-01T14:24:35.448Z,96599.42
2019-04-01T14:27:04.095Z,96599.92
2019-04-01T14:29:32.820Z,96598.41
2019-04-01T14:32:04.335Z,96604.16
2019-04-01T14:34:33.416Z,96601.37
2019-04-01T14:37:02.138Z,96610.58
2019-04-01T14:39:35.021Z,96599.05
2019-04-01T14:42:03.760Z,96601.98
2019-04-01T14:44:32.501Z,96598.50
2019-04-01T14:47:01.247Z,96595.72
2019-04-01T14:49:29.979Z,96599.00
2019-04-01T14:51:58.665Z,96596.34
2019-04-01T14:54:27.317Z,96602.83
2019-04-01T14:56:56.256Z,96597.38
2019-04-01T14:59:25.915Z,96595.14
2019-04-01T15:01:55.706Z,96600.13
2019-04-01T15:04:24.351Z,96598.98
2019-04-01T15:06:53.067Z,96591.94
2019-04-01T15:09:23.499Z,96597.31
2019-04-01T15:11:52.250Z,96593.76
2019-04-01T15:14:20.972Z,96595.09
2019-04-01T15:16:52.613Z,96591.85
2019-04-01T15:19:21.291Z,96596.53
2019-04-01T15:21:52.054Z,96598.69
2019-04-01T15:24:21.162Z,96593.67
2019-04-01T15:26:49.847Z,96589.98
2019-04-01T15:29:18.475Z,96590.09
2019-04-01T15:31:47.138Z,96588.44
2019-04-01T15:34:17.211Z,96597.41
2019-04-01T15:36:45.985Z,96595.03
2019-04-01T15:39:17.777Z,96595.51
2019-04-01T15:41:46.457Z,96593.27
2019-04-01T15:44:14.977Z,96594.64
2019-04-01T15:46:44.861Z,96597.27
2019-04-01T15:49:13.534Z,96600.13
2019-04-01T15:51:42.241Z,96598.62
2019-04-01T15:54:10.892Z,96600.37
2019-04-01T15:56:41.832Z,96606.11
2019-04-01T15:59:09.997Z,96601.58
2019-04-01T16:01:38.758Z,96600.16
2019-04-01T16:04:08.501Z,96598.53
2019-04-01T16:06:37.417Z,96597.94
2019-04-01T16:09:07.242Z,96597.60
2019-04-01T16:11:36.775Z,96597.27
2019-04-01T16:14:08.761Z,96607.53
2019-04-01T16:16:37.604Z,96609.24
2019-04-01T16:19:06.281Z,96608.84
2019-04-01T16:21:34.938Z,96615.69
2019-04-01T16:24:03.581Z,96614.83
2019-04-01T16:26:32.322Z,96617.31
2019-04-01T16:29:01.014Z,96621.41
2019-04-01T16:31:29.672Z,96625.02
2019-04-01T16:33:58.361Z,96625.88
2019-04-01T16:36:27.030Z,96632.12
2019-04-01T16:38:55.605Z,96640.55
2019-04-01T16:41:24.293Z,96631.81
2019-04-01T16:43:52.952Z,96642.98
2019-04-01T16:46:21.595Z,96645.98
2019-04-01T16:48:51.230Z,96645.49
2019-04-01T16:51:21.351Z,96657.27
2019-04-01T16:53:50.300Z,96663.51
2019-04-01T16:56:19.482Z,96672.63
2019-04-01T16:58:48.855Z,96675.72
2019-04-01T17:01:17.505Z,96684.09
2019-04-01T17:03:46.198Z,96692.23
2019-04-01T17:06:15.111Z,96692.33
2019-04-01T17:08:44.693Z,96698.69
2019-04-01T17:11:13.395Z,96667.23
2019-04-01T17:13:42.060Z,96704.02
2019-04-01T17:16:10.923Z,96704.02
2019-04-01T17:18:39.572Z,96721.41
2019-04-01T17:21:08.259Z,96731.97
2019-04-01T17:23:36.909Z,96731.56
2019-04-01T17:26:05.755Z,96734.70
2019-04-01T17:28:34.871Z,96746.16
2019-04-01T17:31:03.451Z,96758.94
2019-04-01T17:33:32.113Z,96748.74
2019-04-01T17:36:00.806Z,96722.19
2019-04-01T17:38:29.462Z,96758.28
2019-04-01T17:40:58.046Z,96752.36
2019-04-01T17:43:26.989Z,96752.36
2019-04-01T17:45:57.059Z,96782.83
2019-04-01T17:48:25.706Z,96786.69
2019-04-01T17:50:54.698Z,96793.55
2019-04-01T17:53:23.359Z,96794.47
2019-04-01T17:55:52.142Z,96802.22
2019-04-01T17:58:21.217Z,96804.59
2019-04-01T18:00:59.969Z,96812.84
2019-04-01T18:03:28.711Z,96826.77
2019-04-01T18:05:57.431Z,96816.45
2019-04-01T18:08:26.297Z,96825.65
2019-04-01T18:10:55.057Z,96825.65
2019-04-01T18:13:23.744Z,96850.70
2019-04-01T18:15:53.209Z,96848.97
2019-04-01T18:18:27.083Z,96851.05
2019-04-01T18:20:52.293Z,96854.13
2019-04-01T18:23:22.183Z,96855.22
2019-04-01T18:25:51.438Z,96867.87
2019-04-01T18:28:20.126Z,96876.00
2019-04-01T18:30:49.468Z,96869.72
2019-04-01T18:33:19.752Z,96877.76
2019-04-01T18:35:50.583Z,96883.89
2019-04-01T18:38:19.108Z,96887.27
2019-04-01T18:40:47.756Z,96884.70
2019-04-01T18:43:16.458Z,96886.09
2019-04-01T18:45:48.130Z,96890.45
2019-04-01T18:48:16.784Z,96885.42
2019-04-01T18:50:45.443Z,96899.48
2019-04-01T18:53:14.097Z,96906.66
2019-04-01T18:55:42.786Z,96902.90
2019-04-01T18:58:11.550Z,96901.79
2019-04-01T19:00:40.211Z,96911.81
2019-04-01T19:03:10.442Z,96917.34
2019-04-01T19:05:39.268Z,96919.94
2019-04-01T19:08:07.870Z,96922.92
2019-04-01T19:10:39.189Z,96931.47
2019-04-01T19:13:12.053Z,96929.93
2019-04-01T19:15:41.693Z,96935.44
2019-04-01T19:18:08.690Z,96943.61
2019-04-01T19:20:37.271Z,96948.02
2019-04-01T19:23:06.266Z,96957.42
2019-04-01T19:25:34.969Z,96962.70
2019-04-01T19:28:03.632Z,96966.13
2019-04-01T19:30:32.215Z,96968.85
2019-04-01T19:33:00.842Z,96967.11
2019-04-01T19:35:29.486Z,96962.44
2019-04-01T19:38:03.371Z,96963.06
2019-04-01T19:40:32.073Z,96968.37
2019-04-01T19:43:03.462Z,96978.85
2019-04-01T19:45:31.377Z,96984.98
2019-04-01T19:48:00.272Z,96992.63
2019-04-01T19:50:28.866Z,96989.30
2019-04-01T19:52:57.499Z,97001.36
2019-04-01T19:55:26.887Z,97006.11
2019-04-01T19:57:57.481Z,97012.77
2019-04-01T20:00:28.055Z,97004.91
2019-04-01T20:02:56.846Z,97017.39
2019-04-01T20:05:25.781Z,97032.80
2019-04-01T20:07:54.362Z,97025.34
2019-04-01T20:10:23.023Z,97026.27
2019-04-01T20:12:51.723Z,97035.97
2019-04-01T20:15:20.571Z,97040.97
2019-04-01T20:17:49.241Z,97051.36
2019-04-01T20:20:17.942Z,97045.22
2019-04-01T20:22:46.590Z,97047.34
2019-04-01T20:25:17.004Z,97049.41
2019-04-01T20:27:45.736Z,97054.00
2019-04-01T20:30:14.876Z,97055.25
2019-04-01T20:32:43.528Z,97053.75
2019-04-01T20:35:22.782Z,97059.80
2019-04-01T20:37:42.930Z,97059.83
2019-04-01T20:40:12.106Z,97066.89
2019-04-01T20:42:40.715Z,97066.06
2019-04-01T20:45:11.153Z,97065.00
2019-04-01T20:47:40.375Z,97071.42
2019-04-01T20:50:10.797Z,97074.77
2019-04-01T20:52:39.444Z,97078.20
2019-04-01T20:55:08.297Z,97077.88
2019-04-01T20:57:36.991Z,97085.64
2019-04-01T21:00:09.268Z,97080.88
2019-04-01T21:02:38.179Z,97095.64
2019-04-01T21:05:09.075Z,97095.63
2019-04-01T21:07:37.852Z,97094.81
2019-04-01T21:10:07.997Z,97094.43
2019-04-01T21:12:37.242Z,97097.56
2019-04-01T21:15:07.532Z,97097.02
2019-04-01T21:17:37.196Z,97105.70
2019-04-01T21:20:09.148Z,97101.95
2019-04-01T21:22:37.871Z,97107.78
2019-04-01T21:25:08.674Z,97111.20
2019-04-01T21:27:37.496Z,97113.81
2019-04-01T21:30:11.071Z,97114.65
2019-04-01T21:32:39.724Z,97116.88
2019-04-01T21:35:09.438Z,97115.69
2019-04-01T21:37:38.535Z,97125.84
2019-04-01T21:40:07.889Z,97126.36
2019-04-01T21:42:36.912Z,97136.02
2019-04-01T21:45:07.765Z,97134.38
2019-04-01T21:47:36.513Z,97136.59
2019-04-01T21:50:06.969Z,97133.27
2019-04-01T21:52:37.737Z,97140.77
2019-04-01T21:55:08.348Z,97141.76
2019-04-01T21:57:37.389Z,97142.45
2019-04-01T22:00:11.085Z,97145.02
2019-04-01T22:02:39.812Z,97160.53
2019-04-01T22:05:10.157Z,97153.91
2019-04-01T22:07:39.574Z,97160.53
2019-04-01T22:10:08.437Z,97164.58
2019-04-01T22:12:37.082Z,97163.42
2019-04-01T22:15:06.744Z,97164.88
2019-04-01T22:17:35.397Z,97169.62
2019-04-01T22:20:06.274Z,97168.73
2019-04-01T22:22:34.959Z,97171.16
2019-04-01T22:25:04.818Z,97177.40
2019-04-01T22:27:35.084Z,97180.67
2019-04-01T22:30:05.934Z,97179.78
2019-04-01T22:32:34.578Z,97188.66
2019-04-01T22:35:05.417Z,97183.86
2019-04-01T22:37:37.228Z,97184.41
2019-04-01T22:40:06.971Z,97183.70
2019-04-01T22:42:35.653Z,97183.00
2019-04-01T22:45:08.133Z,97182.47
2019-04-01T22:47:36.730Z,97180.70
2019-04-01T22:50:10.274Z,97185.59
2019-04-01T22:52:42.072Z,97184.33
2019-04-01T22:55:09.791Z,97187.98
2019-04-01T22:57:38.414Z,97186.20
2019-04-01T23:00:07.954Z,97192.26
2019-04-01T23:02:38.065Z,97199.34
2019-04-01T23:05:09.520Z,97199.52
2019-04-01T23:07:38.096Z,97190.24
2019-04-01T23:10:07.948Z,97196.33
2019-04-01T23:12:36.845Z,97191.52
2019-04-01T23:15:09.028Z,97195.19
2019-04-01T23:17:38.739Z,97193.50
2019-04-01T23:20:08.221Z,97191.52
2019-04-01T23:22:36.813Z,97202.02
2019-04-01T23:25:06.756Z,97197.11
2019-04-01T23:27:35.453Z,97204.95
2019-04-01T23:30:07.035Z,97202.95
2019-04-01T23:32:35.543Z,97202.39
2019-04-01T23:35:05.207Z,97199.53
2019-04-01T23:37:33.902Z,97204.41
2019-04-01T23:40:03.395Z,97206.39
2019-04-01T23:42:32.235Z,97210.02
2019-04-01T23:45:00.923Z,97206.46
2019-04-01T23:47:34.599Z,97210.05
2019-04-01T23:50:03.243Z,97207.23
2019-04-01T23:52:31.835Z,97213.00
2019-04-01T23:55:00.649Z,97225.14
2019-04-01T23:57:29.329Z,97217.38
2019-04-01T23:59:58.926Z,97227.41
